createdAt,value
2022-10-16T00:01:33.649Z,16.71
2022-10-16T00:04:01.952Z,16.61
2022-10-16T00:06:31.508Z,16.67
2022-10-16T00:08:58.333Z,16.72
2022-10-16T00:11:28.209Z,16.72
2022-10-16T00:14:01.523Z,16.74
2022-10-16T00:16:29.490Z,16.86
2022-10-16T00:18:56.832Z,16.92
2022-10-16T00:21:26.155Z,16.90
2022-10-16T00:24:11.680Z,16.76
2022-10-16T00:26:39.952Z,16.69
2022-10-16T00:29:06.898Z,16.65
2022-10-16T00:31:33.879Z,16.69
2022-10-16T00:34:01.340Z,16.70
2022-10-16T00:36:28.766Z,16.63
2022-10-16T00:38:58.350Z,16.63
2022-10-16T00:41:25.629Z,16.62
2022-10-16T00:43:56.906Z,16.67
2022-10-16T00:46:27.590Z,16.69
2022-10-16T00:49:04.308Z,16.84
2022-10-16T00:51:40.650Z,16.99
2022-10-16T00:54:22.135Z,16.95
2022-10-16T00:56:50.258Z,16.74
2022-10-16T00:59:25.648Z,16.76
2022-10-16T01:01:53.253Z,16.89
2022-10-16T01:04:22.050Z,16.78
2022-10-16T01:07:06.847Z,16.68
2022-10-16T01:09:42.221Z,16.78
2022-10-16T01:12:31.927Z,16.83
2022-10-16T01:15:05.564Z,16.71
2022-10-16T01:17:40.487Z,17.17
2022-10-16T01:20:38.775Z,17.26
2022-10-16T01:23:15.799Z,17.16
2022-10-16T01:26:04.050Z,16.98
2022-10-16T01:28:40.835Z,16.99
2022-10-16T01:31:09.561Z,16.81
2022-10-16T01:33:43.206Z,16.68
2022-10-16T01:36:25.878Z,16.54
2022-10-16T01:38:57.580Z,16.56
2022-10-16T01:41:31.342Z,16.51
2022-10-16T01:44:11.251Z,16.58
2022-10-16T01:46:40.300Z,16.56
2022-10-16T01:49:09.069Z,16.60
2022-10-16T01:51:36.867Z,16.55
2022-10-16T01:54:08.382Z,16.50
2022-10-16T01:56:37.244Z,16.52
2022-10-16T01:59:10.366Z,16.47
2022-10-16T02:01:41.058Z,16.57
2022-10-16T02:04:23.874Z,16.47
2022-10-16T02:06:50.862Z,16.63
2022-10-16T02:09:17.817Z,16.62
2022-10-16T02:11:45.666Z,16.59
2022-10-16T02:14:12.712Z,16.59
2022-10-16T02:16:43.422Z,16.59
2022-10-16T02:19:14.565Z,16.71
2022-10-16T02:21:47.884Z,16.55
2022-10-16T02:24:25.015Z,16.70
2022-10-16T02:27:35.227Z,16.78
2022-10-16T02:30:45.294Z,16.66
2022-10-16T02:33:14.645Z,16.95
2022-10-16T02:35:43.039Z,16.92
2022-10-16T02:40:43.618Z,16.78
2022-10-16T02:43:11.065Z,16.76
2022-10-16T02:45:38.412Z,16.79
2022-10-16T02:48:05.469Z,16.73
2022-10-16T02:50:32.180Z,16.70
2022-10-16T02:52:58.791Z,16.56
2022-10-16T02:55:25.365Z,16.65
2022-10-16T02:57:51.916Z,16.71
2022-10-16T03:00:19.567Z,16.77
2022-10-16T03:02:47.542Z,16.68
2022-10-16T03:05:14.819Z,16.70
2022-10-16T03:07:41.439Z,16.85
2022-10-16T03:10:08.585Z,17.00
2022-10-16T03:12:35.206Z,16.73
2022-10-16T03:15:02.167Z,16.67
2022-10-16T03:17:30.819Z,16.57
2022-10-16T03:19:57.562Z,16.52
2022-10-16T03:22:24.157Z,16.53
2022-10-16T03:24:50.741Z,16.77
2022-10-16T03:27:18.207Z,16.78
2022-10-16T03:29:44.803Z,16.64
2022-10-16T03:32:11.452Z,16.57
2022-10-16T03:34:38.070Z,16.51
2022-10-16T03:37:04.744Z,16.50
2022-10-16T03:39:31.399Z,16.59
2022-10-16T03:41:58.331Z,16.59
2022-10-16T03:44:24.880Z,16.62
2022-10-16T03:46:51.826Z,16.59
2022-10-16T03:49:18.541Z,16.65
2022-10-16T03:51:45.181Z,16.60
2022-10-16T03:54:11.937Z,16.53
2022-10-16T03:56:39.297Z,16.50
2022-10-16T03:59:05.845Z,16.52
2022-10-16T04:01:32.520Z,16.50
2022-10-16T04:03:59.102Z,16.54
2022-10-16T04:06:25.726Z,16.62
2022-10-16T04:08:52.563Z,16.52
2022-10-16T04:11:19.332Z,16.56
2022-10-16T04:13:46.060Z,16.61
2022-10-16T04:16:12.609Z,16.57
2022-10-16T04:18:39.309Z,16.57
2022-10-16T04:21:07.552Z,16.53
2022-10-16T04:23:34.179Z,16.77
2022-10-16T04:26:01.348Z,16.67
2022-10-16T04:28:28.682Z,16.62
2022-10-16T04:30:55.373Z,16.49
2022-10-16T04:33:22.212Z,16.57
2022-10-16T04:35:48.763Z,16.79
2022-10-16T04:38:15.443Z,16.77
2022-10-16T04:40:43.349Z,16.86
2022-10-16T04:43:10.127Z,16.79
2022-10-16T04:45:37.153Z,16.54
2022-10-16T04:48:03.942Z,16.51
2022-10-16T04:50:30.601Z,16.39
2022-10-16T04:53:07.904Z,16.46
2022-10-16T04:55:34.972Z,16.69
2022-10-16T04:58:01.660Z,16.68
2022-10-16T05:00:28.306Z,16.71
2022-10-16T05:02:55.068Z,16.69
2022-10-16T05:05:23.932Z,16.71
2022-10-16T05:07:50.626Z,16.86
2022-10-16T05:10:17.896Z,16.53
2022-10-16T05:12:45.337Z,16.68
2022-10-16T05:15:11.968Z,16.64
2022-10-16T05:17:42.465Z,16.51
2022-10-16T05:20:11.888Z,16.60
2022-10-16T05:22:39.017Z,16.59
2022-10-16T05:25:05.884Z,16.68
2022-10-16T05:27:32.485Z,16.53
2022-10-16T05:29:59.273Z,16.86
2022-10-16T05:32:25.849Z,16.89
2022-10-16T05:34:52.852Z,16.69
2022-10-16T05:37:19.404Z,16.60
2022-10-16T05:39:45.974Z,16.51
2022-10-16T05:42:12.698Z,16.78
2022-10-16T05:44:39.414Z,16.70
2022-10-16T05:47:05.982Z,16.63
2022-10-16T05:49:32.564Z,16.91
2022-10-16T05:51:59.780Z,16.90
2022-10-16T05:54:26.895Z,16.87
2022-10-16T05:56:53.524Z,16.67
2022-10-16T05:59:20.156Z,16.69
2022-10-16T06:01:46.998Z,16.73
2022-10-16T06:04:15.897Z,16.65
2022-10-16T06:06:42.546Z,16.68
2022-10-16T06:09:10.595Z,16.76
2022-10-16T06:11:37.562Z,16.76
2022-10-16T06:14:07.667Z,16.54
2022-10-16T06:16:37.286Z,16.65
2022-10-16T06:19:07.163Z,16.82
2022-10-16T06:21:33.973Z,16.85
2022-10-16T06:24:00.702Z,16.71
2022-10-16T06:26:29.468Z,16.78
2022-10-16T06:28:57.297Z,16.57
2022-10-16T06:31:28.408Z,16.50
2022-10-16T06:33:56.096Z,16.74
2022-10-16T06:36:23.590Z,16.60
2022-10-16T06:38:50.870Z,16.61
2022-10-16T06:41:20.989Z,16.47
2022-10-16T06:43:48.212Z,16.42
2022-10-16T06:46:17.988Z,16.46
2022-10-16T06:48:44.847Z,16.61
2022-10-16T06:51:17.097Z,16.51
2022-10-16T06:54:02.395Z,16.47
2022-10-16T06:56:31.937Z,16.52
2022-10-16T06:58:59.651Z,16.48
2022-10-16T07:01:27.436Z,16.49
2022-10-16T07:03:54.400Z,16.51
2022-10-16T07:06:24.307Z,16.48
2022-10-16T07:08:51.636Z,16.49
2022-10-16T07:11:21.257Z,16.67
2022-10-16T07:13:54.902Z,16.72
2022-10-16T07:16:28.916Z,16.77
2022-10-16T07:19:00.824Z,16.86
2022-10-16T07:21:36.540Z,16.71
2022-10-16T07:24:05.774Z,16.83
2022-10-16T07:26:35.078Z,16.84
2022-10-16T07:29:02.272Z,16.98
2022-10-16T07:31:28.934Z,17.09
2022-10-16T07:33:55.653Z,16.91
2022-10-16T07:36:22.668Z,16.95
2022-10-16T07:38:49.341Z,16.80
2022-10-16T07:41:19.579Z,16.92
2022-10-16T07:43:48.422Z,16.80
2022-10-16T07:46:15.538Z,16.85
2022-10-16T07:48:46.444Z,16.95
2022-10-16T07:51:13.568Z,16.89
2022-10-16T07:53:40.204Z,16.82
2022-10-16T07:56:08.754Z,16.85
2022-10-16T07:58:38.173Z,17.14
2022-10-16T08:01:08.303Z,17.00
2022-10-16T08:03:34.921Z,16.90
2022-10-16T08:06:03.119Z,17.03
2022-10-16T08:08:29.993Z,17.17
2022-10-16T08:11:00.061Z,17.15
2022-10-16T08:13:27.434Z,17.06
2022-10-16T08:15:55.042Z,16.98
2022-10-16T08:18:21.932Z,16.95
2022-10-16T08:20:48.607Z,16.90
2022-10-16T08:23:15.375Z,17.06
2022-10-16T08:25:42.637Z,17.21
2022-10-16T08:28:11.357Z,17.25
2022-10-16T08:30:38.206Z,17.11
2022-10-16T08:33:05.641Z,17.19
2022-10-16T08:35:32.471Z,17.03
2022-10-16T08:37:59.097Z,16.93
2022-10-16T08:40:34.409Z,17.00
2022-10-16T08:43:20.312Z,17.12
2022-10-16T08:46:38.045Z,17.44
2022-10-16T08:49:09.147Z,17.23
2022-10-16T08:51:40.259Z,17.08
2022-10-16T08:54:35.886Z,17.17
2022-10-16T08:57:10.912Z,17.00
2022-10-16T08:59:37.887Z,16.92
2022-10-16T09:02:22.886Z,17.09
2022-10-16T09:05:00.682Z,17.01
2022-10-16T09:07:49.188Z,17.15
2022-10-16T09:10:27.594Z,17.45
2022-10-16T09:13:19.497Z,17.87
2022-10-16T09:16:08.677Z,17.92
2022-10-16T09:18:49.633Z,17.83
2022-10-16T09:21:26.413Z,17.96
2022-10-16T09:23:53.079Z,18.03
2022-10-16T09:28:53.176Z,18.15
2022-10-16T09:31:22.954Z,18.37
2022-10-16T09:33:56.309Z,18.19
2022-10-16T09:36:26.403Z,18.22
2022-10-16T09:39:06.396Z,18.50
2022-10-16T09:41:36.847Z,18.42
2022-10-16T09:44:07.814Z,18.49
2022-10-16T09:46:37.044Z,18.21
2022-10-16T09:49:25.410Z,18.31
2022-10-16T09:52:03.467Z,18.16
2022-10-16T09:54:30.232Z,18.25
2022-10-16T09:57:07.008Z,18.33
2022-10-16T09:59:33.703Z,18.21
2022-10-16T10:02:12.884Z,18.16
2022-10-16T10:04:46.370Z,18.27
2022-10-16T10:07:25.062Z,18.40
2022-10-16T10:09:52.107Z,18.38
2022-10-16T10:12:26.962Z,18.45
2022-10-16T10:14:59.415Z,18.54
2022-10-16T10:17:30.006Z,18.80
2022-10-16T10:20:22.324Z,18.82
2022-10-16T10:22:49.057Z,19.02
2022-10-16T10:25:37.621Z,18.97
2022-10-16T10:28:25.880Z,18.84
2022-10-16T10:31:15.191Z,18.78
2022-10-16T10:33:55.521Z,18.82
2022-10-16T10:36:39.995Z,18.67
2022-10-16T10:39:26.635Z,18.59
2022-10-16T10:42:17.103Z,18.62
2022-10-16T10:45:19.203Z,18.64
2022-10-16T10:48:17.076Z,18.70
2022-10-16T10:51:05.319Z,19.16
2022-10-16T10:53:43.796Z,19.63
2022-10-16T10:56:17.024Z,19.88
2022-10-16T10:59:11.608Z,19.79
2022-10-16T11:02:01.658Z,20.06
2022-10-16T11:05:16.543Z,20.17
2022-10-16T11:07:53.572Z,20.31
2022-10-16T11:10:25.128Z,20.12
2022-10-16T11:13:22.781Z,20.05
2022-10-16T11:15:53.054Z,19.98
2022-10-16T11:18:47.434Z,20.17
2022-10-16T11:21:17.063Z,20.18
2022-10-16T11:24:01.311Z,20.22
2022-10-16T11:26:33.844Z,20.15
2022-10-16T11:29:04.554Z,19.98
2022-10-16T11:31:50.315Z,19.87
2022-10-16T11:34:23.002Z,19.73
2022-10-16T11:36:59.586Z,19.89
2022-10-16T11:39:30.995Z,20.25
2022-10-16T11:42:08.577Z,20.48
2022-10-16T11:45:19.166Z,19.99
2022-10-16T11:47:59.381Z,19.63
2022-10-16T11:50:35.462Z,19.78
2022-10-16T11:53:25.149Z,19.90
2022-10-16T11:55:52.830Z,20.04
2022-10-16T11:58:35.312Z,19.96
2022-10-16T12:01:20.268Z,19.87
2022-10-16T12:03:57.687Z,19.92
2022-10-16T12:06:34.243Z,20.04
2022-10-16T12:09:01.994Z,19.99
2022-10-16T12:11:28.506Z,20.03
2022-10-16T12:14:07.300Z,19.88
2022-10-16T12:16:34.080Z,19.86
2022-10-16T12:19:20.531Z,19.80
2022-10-16T12:21:47.567Z,19.87
2022-10-16T12:24:29.432Z,19.86
2022-10-16T12:26:56.751Z,19.93
2022-10-16T12:29:43.853Z,19.90
2022-10-16T12:32:48.407Z,19.91
2022-10-16T12:35:22.138Z,19.88
2022-10-16T12:37:49.134Z,19.85
2022-10-16T12:40:30.536Z,19.88
2022-10-16T12:42:57.814Z,19.95
2022-10-16T12:45:32.999Z,19.94
2022-10-16T12:48:02.620Z,20.04
2022-10-16T12:50:35.980Z,20.05
2022-10-16T12:53:04.490Z,20.19
2022-10-16T12:55:53.676Z,20.19
2022-10-16T12:58:53.084Z,20.15
2022-10-16T13:01:35.231Z,20.26
2022-10-16T13:04:16.993Z,20.22
2022-10-16T13:07:04.952Z,20.26
2022-10-16T13:09:54.149Z,20.11
2022-10-16T13:12:56.467Z,19.94
2022-10-16T13:16:07.955Z,19.98
2022-10-16T13:18:56.375Z,19.91
2022-10-16T13:22:01.321Z,19.76
2022-10-16T13:24:55.313Z,19.74
2022-10-16T13:27:48.989Z,19.76
2022-10-16T13:30:30.577Z,19.68
2022-10-16T13:33:15.655Z,19.71
2022-10-16T13:35:54.782Z,19.79
2022-10-16T13:38:24.620Z,19.84
2022-10-16T13:40:52.941Z,19.80
2022-10-16T13:43:23.022Z,20.06
2022-10-16T13:46:01.407Z,19.97
2022-10-16T13:48:28.515Z,20.03
2022-10-16T13:51:02.530Z,19.98
2022-10-16T13:53:31.826Z,20.06
2022-10-16T13:56:01.054Z,20.07
2022-10-16T13:58:27.892Z,19.98
2022-10-16T14:00:57.408Z,19.98
2022-10-16T14:03:25.266Z,19.92
2022-10-16T14:05:58.726Z,19.86
2022-10-16T14:08:27.761Z,19.86
2022-10-16T14:10:57.638Z,19.89
2022-10-16T14:13:39.226Z,19.89
2022-10-16T14:16:12.199Z,19.78
2022-10-16T14:18:40.957Z,19.76
2022-10-16T14:21:12.972Z,19.81
2022-10-16T14:23:41.523Z,19.87
2022-10-16T14:26:15.231Z,19.77
2022-10-16T14:28:42.980Z,19.75
2022-10-16T14:31:30.958Z,19.69
2022-10-16T14:33:57.566Z,19.78
2022-10-16T14:36:25.220Z,19.91
2022-10-16T14:39:00.003Z,19.83
2022-10-16T14:41:26.747Z,19.68
2022-10-16T14:44:01.666Z,19.74
2022-10-16T14:46:37.315Z,19.98
2022-10-16T14:49:10.014Z,19.81
2022-10-16T14:51:37.669Z,19.90
2022-10-16T14:54:05.246Z,19.92
2022-10-16T14:56:42.758Z,19.88
2022-10-16T14:59:17.326Z,19.81
2022-10-16T15:01:46.095Z,19.89
2022-10-16T15:04:13.826Z,19.91
2022-10-16T15:06:40.622Z,19.86
2022-10-16T15:09:07.221Z,19.93
2022-10-16T15:11:34.101Z,19.95
2022-10-16T15:14:00.718Z,20.10
2022-10-16T15:16:27.401Z,20.11
2022-10-16T15:18:54.221Z,20.20
2022-10-16T15:21:30.167Z,20.22
2022-10-16T15:23:57.679Z,20.21
2022-10-16T15:26:26.280Z,20.11
2022-10-16T15:28:53.235Z,20.13
2022-10-16T15:31:20.684Z,20.03
2022-10-16T15:33:54.540Z,20.08
2022-10-16T15:36:29.156Z,20.14
2022-10-16T15:38:56.152Z,20.19
2022-10-16T15:41:23.457Z,19.94
2022-10-16T15:43:51.069Z,19.84
2022-10-16T15:46:22.199Z,19.85
2022-10-16T15:48:50.604Z,19.83
2022-10-16T15:51:18.422Z,19.86
2022-10-16T15:53:47.214Z,19.89
2022-10-16T15:56:14.914Z,19.84
2022-10-16T15:58:43.686Z,19.90
2022-10-16T16:01:11.458Z,19.79
2022-10-16T16:03:41.391Z,19.87
2022-10-16T16:06:11.434Z,19.84
2022-10-16T16:08:38.912Z,19.73
2022-10-16T16:11:11.230Z,19.85
2022-10-16T16:13:41.197Z,19.81
2022-10-16T16:16:14.889Z,19.78
2022-10-16T16:18:42.943Z,19.68
2022-10-16T16:21:12.403Z,19.63
2022-10-16T16:23:39.018Z,19.58
2022-10-16T16:26:14.607Z,19.55
2022-10-16T16:28:43.001Z,19.52
2022-10-16T16:31:10.293Z,19.38
2022-10-16T16:33:36.932Z,19.31
2022-10-16T16:36:09.368Z,19.24
2022-10-16T16:38:39.680Z,19.27
2022-10-16T16:41:13.478Z,19.13
2022-10-16T16:43:40.893Z,19.06
2022-10-16T16:46:07.619Z,19.13
2022-10-16T16:48:34.667Z,19.27
2022-10-16T16:51:05.577Z,19.34
2022-10-16T16:53:35.379Z,19.34
2022-10-16T16:56:06.387Z,19.29
2022-10-16T16:58:33.996Z,19.20
2022-10-16T17:03:52.876Z,18.94
2022-10-16T17:06:21.531Z,18.84
2022-10-16T17:08:49.765Z,18.85
2022-10-16T17:11:22.113Z,18.83
2022-10-16T17:13:53.909Z,18.74
2022-10-16T17:16:25.967Z,18.99
2022-10-16T17:18:54.024Z,18.96
2022-10-16T17:21:20.736Z,18.89
2022-10-16T17:23:47.372Z,18.85
2022-10-16T17:26:17.439Z,18.71
2022-10-16T17:28:44.621Z,18.60
2022-10-16T17:31:12.706Z,18.51
2022-10-16T17:33:39.699Z,18.45
2022-10-16T17:36:06.719Z,18.42
2022-10-16T17:38:33.446Z,18.39
2022-10-16T17:41:17.851Z,18.40
2022-10-16T17:43:45.248Z,18.68
2022-10-16T17:46:13.395Z,18.67
2022-10-16T17:48:42.291Z,18.55
2022-10-16T17:51:12.023Z,18.65
2022-10-16T17:53:39.722Z,18.59
2022-10-16T17:56:10.270Z,18.48
2022-10-16T17:58:37.458Z,18.49
2022-10-16T18:01:15.770Z,18.46
2022-10-16T18:03:42.633Z,18.52
2022-10-16T18:06:09.647Z,18.52
2022-10-16T18:08:36.697Z,18.65
2022-10-16T18:11:03.905Z,18.64
2022-10-16T18:13:30.769Z,18.59
2022-10-16T18:16:02.298Z,18.56
2022-10-16T18:18:29.840Z,18.35
2022-10-16T18:21:02.404Z,18.22
2022-10-16T18:23:29.894Z,18.18
2022-10-16T18:25:56.786Z,18.14
2022-10-16T18:28:23.631Z,18.13
2022-10-16T18:31:01.266Z,18.32
2022-10-16T18:33:30.635Z,18.39
2022-10-16T18:36:01.843Z,18.38
2022-10-16T18:38:28.801Z,18.24
2022-10-16T18:40:55.547Z,18.12
2022-10-16T18:43:23.466Z,17.96
2022-10-16T18:46:04.801Z,17.87
2022-10-16T18:48:31.999Z,17.87
2022-10-16T18:51:13.910Z,18.26
2022-10-16T18:53:42.677Z,18.26
2022-10-16T18:56:10.248Z,18.05
2022-10-16T18:58:39.194Z,18.08
2022-10-16T19:01:08.235Z,18.07
2022-10-16T19:03:35.184Z,18.12
2022-10-16T19:06:03.280Z,18.02
2022-10-16T19:08:32.238Z,17.87
2022-10-16T19:11:07.791Z,17.75
2022-10-16T19:13:35.132Z,17.71
2022-10-16T19:16:18.720Z,17.64
2022-10-16T19:18:47.057Z,17.65
2022-10-16T19:21:14.758Z,17.67
2022-10-16T19:23:42.335Z,17.86
2022-10-16T19:26:11.863Z,18.04
2022-10-16T19:28:39.451Z,17.94
2022-10-16T19:31:08.429Z,17.72
2022-10-16T19:33:35.100Z,17.65
2022-10-16T19:36:12.850Z,17.59
2022-10-16T19:38:40.693Z,17.58
2022-10-16T19:41:11.762Z,17.55
2022-10-16T19:43:39.115Z,17.69
2022-10-16T19:46:07.967Z,17.64
2022-10-16T19:48:34.670Z,17.62
2022-10-16T19:51:02.537Z,17.85
2022-10-16T19:53:30.439Z,17.75
2022-10-16T19:55:57.863Z,17.77
2022-10-16T19:58:24.981Z,17.61
2022-10-16T20:00:52.128Z,17.55
2022-10-16T20:03:18.810Z,17.50
2022-10-16T20:05:53.222Z,17.51
2022-10-16T20:08:20.357Z,17.58
2022-10-16T20:10:54.965Z,17.57
2022-10-16T20:13:22.492Z,17.47
2022-10-16T20:15:49.516Z,17.55
2022-10-16T20:18:16.952Z,17.49
2022-10-16T20:20:48.669Z,17.52
2022-10-16T20:23:15.564Z,17.44
2022-10-16T20:25:43.219Z,17.48
2022-10-16T20:28:12.950Z,17.41
2022-10-16T20:30:42.467Z,17.37
2022-10-16T20:33:09.613Z,17.46
2022-10-16T20:35:37.758Z,17.40
2022-10-16T20:38:04.592Z,17.61
2022-10-16T20:40:33.448Z,17.43
2022-10-16T20:43:00.053Z,17.39
2022-10-16T20:45:26.845Z,17.37
2022-10-16T20:47:53.426Z,17.28
2022-10-16T20:50:20.269Z,17.68
2022-10-16T20:55:15.940Z,17.49
2022-10-16T20:57:42.670Z,17.38
2022-10-16T21:00:10.138Z,17.47
2022-10-16T21:02:36.815Z,17.46
2022-10-16T21:05:03.586Z,17.94
2022-10-16T21:07:30.638Z,17.83
2022-10-16T21:09:58.474Z,17.73
2022-10-16T21:12:25.899Z,17.75
2022-10-16T21:15:13.471Z,17.59
2022-10-16T21:17:39.920Z,17.66
2022-10-16T21:20:06.867Z,17.53
2022-10-16T21:22:33.456Z,17.57
2022-10-16T21:25:00.056Z,17.49
2022-10-16T21:27:26.701Z,17.48
2022-10-16T21:29:54.219Z,17.40
2022-10-16T21:32:23.810Z,17.47
2022-10-16T21:34:50.421Z,17.41
2022-10-16T21:37:16.965Z,17.15
2022-10-16T21:39:43.599Z,17.05
2022-10-16T21:42:10.186Z,17.26
2022-10-16T21:44:38.232Z,17.37
2022-10-16T21:47:04.819Z,17.26
2022-10-16T21:49:31.418Z,17.34
2022-10-16T21:51:57.983Z,17.35
2022-10-16T21:54:24.789Z,17.40
2022-10-16T21:56:52.827Z,17.43
2022-10-16T21:59:20.035Z,17.26
2022-10-16T22:01:46.724Z,17.41
2022-10-16T22:04:15.638Z,17.35
2022-10-16T22:06:43.059Z,17.24
2022-10-16T22:09:14.643Z,17.05
2022-10-16T22:11:43.504Z,17.24
2022-10-16T22:14:18.906Z,17.10
2022-10-16T22:16:46.586Z,17.11
2022-10-16T22:19:15.077Z,17.06
2022-10-16T22:21:43.691Z,16.92
2022-10-16T22:24:10.301Z,16.84
2022-10-16T22:26:38.067Z,16.94
2022-10-16T22:29:05.557Z,16.97
2022-10-16T22:31:32.390Z,17.09
2022-10-16T22:34:01.376Z,17.13
2022-10-16T22:36:28.830Z,17.08
2022-10-16T22:38:55.836Z,17.38
2022-10-16T22:41:24.495Z,17.28
2022-10-16T22:43:51.361Z,17.10
2022-10-16T22:46:26.713Z,17.16
2022-10-16T22:48:55.729Z,17.22
2022-10-16T22:51:23.398Z,17.35
2022-10-16T22:53:50.650Z,17.26
2022-10-16T22:56:19.221Z,17.14
2022-10-16T22:58:46.642Z,17.11
2022-10-16T23:01:17.117Z,17.20
2022-10-16T23:03:43.818Z,17.10
2022-10-16T23:06:10.520Z,17.34
2022-10-16T23:08:37.250Z,17.33
2022-10-16T23:11:06.981Z,17.27
2022-10-16T23:13:36.988Z,17.17
2022-10-16T23:16:06.080Z,17.32
2022-10-16T23:18:34.522Z,17.28
2022-10-16T23:21:08.888Z,17.25
2022-10-16T23:23:36.953Z,17.25
2022-10-16T23:26:08.976Z,17.27
2022-10-16T23:28:35.651Z,17.13
2022-10-16T23:31:05.014Z,17.14
2022-10-16T23:33:32.874Z,17.26
2022-10-16T23:35:59.571Z,17.20
2022-10-16T23:38:26.151Z,17.23
2022-10-16T23:40:52.734Z,17.23
2022-10-16T23:43:19.320Z,17.27
2022-10-16T23:45:45.869Z,17.22
2022-10-16T23:48:12.522Z,17.27
2022-10-16T23:50:39.184Z,17.29
2022-10-16T23:53:09.415Z,17.26
2022-10-16T23:55:36.952Z,17.19
2022-10-16T23:58:03.754Z,17.34
